sensor_id;sensor_type;location;lat;lon;timestamp;temperature;humidity
9329;DHT22;4703;48.748;19.142;2022-09-09T00:04:29;18.40;99.90
9329;DHT22;4703;48.748;19.142;2022-09-09T00:15:49;21.10;99.90
9329;DHT22;4703;48.748;19.142;2022-09-09T00:21:15;18.00;99.90
9329;DHT22;4703;48.748;19.142;2022-09-09T00:23:48;18.00;99.90
9329;DHT22;4703;48.748;19.142;2022-09-09T00:26:34;18.00;99.90
9329;DHT22;4703;48.748;19.142;2022-09-09T00:29:33;18.10;99.90
9329;DHT22;4703;48.748;19.142;2022-09-09T00:32:16;17.90;99.90
9329;DHT22;4703;48.748;19.142;2022-09-09T00:34:55;17.80;99.90
9329;DHT22;4703;48.748;19.142;2022-09-09T00:37:25;17.80;99.90
9329;DHT22;4703;48.748;19.142;2022-09-09T00:39:57;17.70;99.90
9329;DHT22;4703;48.748;19.142;2022-09-09T00:43:09;17.70;99.90
9329;DHT22;4703;48.748;19.142;2022-09-09T00:48:13;17.60;99.90
9329;DHT22;4703;48.748;19.142;2022-09-09T00:50:56;18.30;99.90
9329;DHT22;4703;48.748;19.142;2022-09-09T00:56:26;17.50;99.90
9329;DHT22;4703;48.748;19.142;2022-09-09T00:59:26;17.60;99.90
9329;DHT22;4703;48.748;19.142;2022-09-09T01:01:55;17.50;99.90
9329;DHT22;4703;48.748;19.142;2022-09-09T01:04:34;17.80;99.90
9329;DHT22;4703;48.748;19.142;2022-09-09T01:07:17;17.40;99.90
9329;DHT22;4703;48.748;19.142;2022-09-09T01:09:57;17.30;99.90
9329;DHT22;4703;48.748;19.142;2022-09-09T01:12:42;17.20;99.90
9329;DHT22;4703;48.748;19.142;2022-09-09T01:15:17;17.20;99.90
9329;DHT22;4703;48.748;19.142;2022-09-09T01:21:21;17.10;99.90
9329;DHT22;4703;48.748;19.142;2022-09-09T01:27:05;17.00;99.90
9329;DHT22;4703;48.748;19.142;2022-09-09T01:29:33;17.00;99.90
9329;DHT22;4703;48.748;19.142;2022-09-09T01:32:35;17.60;99.90
9329;DHT22;4703;48.748;19.142;2022-09-09T01:38:04;17.00;99.90
9329;DHT22;4703;48.748;19.142;2022-09-09T01:40:32;16.90;99.90
9329;DHT22;4703;48.748;19.142;2022-09-09T01:42:59;17.30;99.90
9329;DHT22;4703;48.748;19.142;2022-09-09T01:45:26;16.90;99.90
9329;DHT22;4703;48.748;19.142;2022-09-09T01:47:53;17.40;99.90
9329;DHT22;4703;48.748;19.142;2022-09-09T01:50:20;17.80;99.90
9329;DHT22;4703;48.748;19.142;2022-09-09T01:52:52;17.20;99.90
9329;DHT22;4703;48.748;19.142;2022-09-09T01:55:32;16.80;99.90
9329;DHT22;4703;48.748;19.142;2022-09-09T02:01:06;16.70;99.90
9329;DHT22;4703;48.748;19.142;2022-09-09T02:03:38;16.70;99.90
9329;DHT22;4703;48.748;19.142;2022-09-09T02:06:36;16.70;99.90
9329;DHT22;4703;48.748;19.142;2022-09-09T02:09:07;16.70;99.90
9329;DHT22;4703;48.748;19.142;2022-09-09T02:11:37;17.60;99.90
9329;DHT22;4703;48.748;19.142;2022-09-09T02:14:17;18.40;99.90
9329;DHT22;4703;48.748;19.142;2022-09-09T02:16:57;16.60;99.90
9329;DHT22;4703;48.748;19.142;2022-09-09T02:19:32;19.50;99.90
9329;DHT22;4703;48.748;19.142;2022-09-09T02:22:04;18.20;99.90
9329;DHT22;4703;48.748;19.142;2022-09-09T02:24:34;16.70;99.90
9329;DHT22;4703;48.748;19.142;2022-09-09T02:27:04;17.50;99.90
9329;DHT22;4703;48.748;19.142;2022-09-09T02:29:39;16.40;99.90
9329;DHT22;4703;48.748;19.142;2022-09-09T02:32:21;19.50;99.90
9329;DHT22;4703;48.748;19.142;2022-09-09T02:35:00;16.40;99.90
9329;DHT22;4703;48.748;19.142;2022-09-09T02:37:35;17.00;99.90
9329;DHT22;4703;48.748;19.142;2022-09-09T02:40:05;17.60;99.90
9329;DHT22;4703;48.748;19.142;2022-09-09T02:42:45;16.30;99.90
9329;DHT22;4703;48.748;19.142;2022-09-09T02:45:17;17.10;99.90
9329;DHT22;4703;48.748;19.142;2022-09-09T02:48:17;16.90;99.90
9329;DHT22;4703;48.748;19.142;2022-09-09T02:54:10;16.30;99.90
9329;DHT22;4703;48.748;19.142;2022-09-09T02:56:49;16.20;99.90
9329;DHT22;4703;48.748;19.142;2022-09-09T02:59:21;17.10;99.90
9329;DHT22;4703;48.748;19.142;2022-09-09T03:01:49;16.20;99.90
9329;DHT22;4703;48.748;19.142;2022-09-09T03:04:16;17.90;99.90
9329;DHT22;4703;48.748;19.142;2022-09-09T03:06:43;17.80;99.90
9329;DHT22;4703;48.748;19.142;2022-09-09T03:09:10;17.20;99.90
9329;DHT22;4703;48.748;19.142;2022-09-09T03:11:37;16.20;99.90
9329;DHT22;4703;48.748;19.142;2022-09-09T03:14:05;16.20;99.90
9329;DHT22;4703;48.748;19.142;2022-09-09T03:16:32;17.00;99.90
9329;DHT22;4703;48.748;19.142;2022-09-09T03:19:01;16.20;99.90
9329;DHT22;4703;48.748;19.142;2022-09-09T03:21:28;16.60;99.90
9329;DHT22;4703;48.748;19.142;2022-09-09T03:23:55;16.20;99.90
9329;DHT22;4703;48.748;19.142;2022-09-09T03:26:23;18.50;99.90
9329;DHT22;4703;48.748;19.142;2022-09-09T03:28:50;16.80;99.90
9329;DHT22;4703;48.748;19.142;2022-09-09T03:31:18;16.10;99.90
9329;DHT22;4703;48.748;19.142;2022-09-09T03:33:46;16.60;99.90
9329;DHT22;4703;48.748;19.142;2022-09-09T03:36:13;16.10;99.90
9329;DHT22;4703;48.748;19.142;2022-09-09T03:38:41;16.20;99.90
9329;DHT22;4703;48.748;19.142;2022-09-09T03:41:08;16.10;99.90
9329;DHT22;4703;48.748;19.142;2022-09-09T03:43:35;16.90;99.90
9329;DHT22;4703;48.748;19.142;2022-09-09T03:46:02;16.00;99.90
9329;DHT22;4703;48.748;19.142;2022-09-09T03:48:30;16.00;99.90
9329;DHT22;4703;48.748;19.142;2022-09-09T03:50:57;16.30;99.90
9329;DHT22;4703;48.748;19.142;2022-09-09T03:53:29;17.50;99.90
9329;DHT22;4703;48.748;19.142;2022-09-09T03:55:57;15.90;99.90
9329;DHT22;4703;48.748;19.142;2022-09-09T03:58:26;17.30;99.90
9329;DHT22;4703;48.748;19.142;2022-09-09T04:01:08;15.80;99.90
9329;DHT22;4703;48.748;19.142;2022-09-09T04:03:36;15.80;99.90
9329;DHT22;4703;48.748;19.142;2022-09-09T04:06:05;15.80;99.90
9329;DHT22;4703;48.748;19.142;2022-09-09T04:08:34;15.80;99.90
9329;DHT22;4703;48.748;19.142;2022-09-09T04:11:02;17.30;99.90
9329;DHT22;4703;48.748;19.142;2022-09-09T04:13:37;15.80;99.90
9329;DHT22;4703;48.748;19.142;2022-09-09T04:16:06;16.20;99.90
9329;DHT22;4703;48.748;19.142;2022-09-09T04:18:34;17.50;99.90
9329;DHT22;4703;48.748;19.142;2022-09-09T04:21:02;15.90;99.90
9329;DHT22;4703;48.748;19.142;2022-09-09T04:23:30;15.80;99.90
9329;DHT22;4703;48.748;19.142;2022-09-09T04:25:58;16.80;99.90
9329;DHT22;4703;48.748;19.142;2022-09-09T04:28:29;15.70;99.90
9329;DHT22;4703;48.748;19.142;2022-09-09T04:31:04;15.70;99.90
9329;DHT22;4703;48.748;19.142;2022-09-09T04:33:32;16.50;99.90
9329;DHT22;4703;48.748;19.142;2022-09-09T04:36:06;17.40;99.90
9329;DHT22;4703;48.748;19.142;2022-09-09T04:38:33;15.70;99.90
9329;DHT22;4703;48.748;19.142;2022-09-09T04:41:01;15.60;99.90
9329;DHT22;4703;48.748;19.142;2022-09-09T04:43:28;15.60;99.90
9329;DHT22;4703;48.748;19.142;2022-09-09T04:45:57;16.40;99.90
9329;DHT22;4703;48.748;19.142;2022-09-09T04:48:26;16.40;99.90
9329;DHT22;4703;48.748;19.142;2022-09-09T04:50:58;15.60;99.90
9329;DHT22;4703;48.748;19.142;2022-09-09T04:53:26;15.80;99.90
9329;DHT22;4703;48.748;19.142;2022-09-09T04:56:05;16.60;99.90
9329;DHT22;4703;48.748;19.142;2022-09-09T04:58:33;15.60;99.90
9329;DHT22;4703;48.748;19.142;2022-09-09T05:01:08;16.40;99.90
9329;DHT22;4703;48.748;19.142;2022-09-09T05:03:44;15.70;99.90
9329;DHT22;4703;48.748;19.142;2022-09-09T05:06:15;15.70;99.90
9329;DHT22;4703;48.748;19.142;2022-09-09T05:08:44;15.70;99.90
9329;DHT22;4703;48.748;19.142;2022-09-09T05:11:25;15.90;99.90
9329;DHT22;4703;48.748;19.142;2022-09-09T05:13:54;15.70;99.90
9329;DHT22;4703;48.748;19.142;2022-09-09T05:16:21;16.00;99.90
9329;DHT22;4703;48.748;19.142;2022-09-09T05:18:49;16.20;99.90
9329;DHT22;4703;48.748;19.142;2022-09-09T05:21:22;15.80;99.90
9329;DHT22;4703;48.748;19.142;2022-09-09T05:23:51;18.30;99.90
9329;DHT22;4703;48.748;19.142;2022-09-09T05:26:20;16.30;99.90
9329;DHT22;4703;48.748;19.142;2022-09-09T05:28:47;16.10;99.90
9329;DHT22;4703;48.748;19.142;2022-09-09T05:31:16;16.50;99.90
9329;DHT22;4703;48.748;19.142;2022-09-09T05:33:45;16.70;99.90
9329;DHT22;4703;48.748;19.142;2022-09-09T05:36:14;17.30;99.90
9329;DHT22;4703;48.748;19.142;2022-09-09T05:38:43;16.10;99.90
9329;DHT22;4703;48.748;19.142;2022-09-09T05:41:11;15.90;99.90
9329;DHT22;4703;48.748;19.142;2022-09-09T05:43:39;17.80;99.90
9329;DHT22;4703;48.748;19.142;2022-09-09T05:46:08;16.00;99.90
9329;DHT22;4703;48.748;19.142;2022-09-09T05:48:42;16.00;99.90
9329;DHT22;4703;48.748;19.142;2022-09-09T05:51:11;17.10;99.90
9329;DHT22;4703;48.748;19.142;2022-09-09T05:53:42;16.00;99.90
9329;DHT22;4703;48.748;19.142;2022-09-09T05:56:15;16.30;99.90
9329;DHT22;4703;48.748;19.142;2022-09-09T05:58:46;15.90;99.90
9329;DHT22;4703;48.748;19.142;2022-09-09T06:01:36;15.90;99.90
9329;DHT22;4703;48.748;19.142;2022-09-09T06:04:03;17.20;99.90
9329;DHT22;4703;48.748;19.142;2022-09-09T06:06:32;15.90;99.90
9329;DHT22;4703;48.748;19.142;2022-09-09T06:09:07;17.10;99.90
9329;DHT22;4703;48.748;19.142;2022-09-09T06:11:38;16.20;99.90
9329;DHT22;4703;48.748;19.142;2022-09-09T06:14:06;16.90;99.90
9329;DHT22;4703;48.748;19.142;2022-09-09T06:16:34;16.50;99.90
9329;DHT22;4703;48.748;19.142;2022-09-09T06:19:02;17.90;99.90
9329;DHT22;4703;48.748;19.142;2022-09-09T06:21:32;16.60;99.90
9329;DHT22;4703;48.748;19.142;2022-09-09T06:24:00;17.90;99.90
9329;DHT22;4703;48.748;19.142;2022-09-09T06:26:30;16.20;99.90
9329;DHT22;4703;48.748;19.142;2022-09-09T06:29:03;17.00;99.90
9329;DHT22;4703;48.748;19.142;2022-09-09T06:31:32;16.30;99.90
9329;DHT22;4703;48.748;19.142;2022-09-09T06:34:08;16.50;99.90
9329;DHT22;4703;48.748;19.142;2022-09-09T06:36:37;17.00;99.90
9329;DHT22;4703;48.748;19.142;2022-09-09T06:39:05;16.70;99.90
9329;DHT22;4703;48.748;19.142;2022-09-09T06:41:40;16.80;99.90
9329;DHT22;4703;48.748;19.142;2022-09-09T06:44:07;16.70;99.90
9329;DHT22;4703;48.748;19.142;2022-09-09T06:46:34;16.70;99.90
9329;DHT22;4703;48.748;19.142;2022-09-09T06:49:02;16.60;99.90
9329;DHT22;4703;48.748;19.142;2022-09-09T06:51:31;17.30;99.90
9329;DHT22;4703;48.748;19.142;2022-09-09T06:54:01;16.70;99.90
9329;DHT22;4703;48.748;19.142;2022-09-09T06:56:34;17.30;99.90
9329;DHT22;4703;48.748;19.142;2022-09-09T06:59:04;16.80;99.90
9329;DHT22;4703;48.748;19.142;2022-09-09T07:01:43;16.80;99.90
9329;DHT22;4703;48.748;19.142;2022-09-09T07:04:10;16.90;99.90
9329;DHT22;4703;48.748;19.142;2022-09-09T07:06:40;18.20;99.90
9329;DHT22;4703;48.748;19.142;2022-09-09T07:09:11;15.20;99.90
9329;DHT22;4703;48.748;19.142;2022-09-09T07:11:44;18.10;99.90
9329;DHT22;4703;48.748;19.142;2022-09-09T07:14:13;17.20;99.90
9329;DHT22;4703;48.748;19.142;2022-09-09T07:16:42;17.10;99.90
9329;DHT22;4703;48.748;19.142;2022-09-09T07:19:11;17.20;99.90
9329;DHT22;4703;48.748;19.142;2022-09-09T07:21:39;17.20;99.90
9329;DHT22;4703;48.748;19.142;2022-09-09T07:24:09;17.70;99.90
9329;DHT22;4703;48.748;19.142;2022-09-09T07:26:38;17.90;99.90
9329;DHT22;4703;48.748;19.142;2022-09-09T07:29:07;18.10;99.90
9329;DHT22;4703;48.748;19.142;2022-09-09T07:31:36;17.50;99.90
9329;DHT22;4703;48.748;19.142;2022-09-09T07:34:06;17.50;99.90
9329;DHT22;4703;48.748;19.142;2022-09-09T07:36:36;17.60;99.90
9329;DHT22;4703;48.748;19.142;2022-09-09T07:39:12;17.40;99.90
9329;DHT22;4703;48.748;19.142;2022-09-09T07:41:45;17.50;99.90
9329;DHT22;4703;48.748;19.142;2022-09-09T07:44:21;17.50;99.90
9329;DHT22;4703;48.748;19.142;2022-09-09T07:46:49;17.60;99.90
9329;DHT22;4703;48.748;19.142;2022-09-09T07:49:16;18.00;99.90
9329;DHT22;4703;48.748;19.142;2022-09-09T07:51:51;17.70;99.90
9329;DHT22;4703;48.748;19.142;2022-09-09T07:54:20;17.70;99.90
9329;DHT22;4703;48.748;19.142;2022-09-09T07:56:51;16.80;99.90
9329;DHT22;4703;48.748;19.142;2022-09-09T07:59:18;17.80;99.90
9329;DHT22;4703;48.748;19.142;2022-09-09T08:01:50;17.80;99.90
9329;DHT22;4703;48.748;19.142;2022-09-09T08:04:23;17.90;99.90
9329;DHT22;4703;48.748;19.142;2022-09-09T08:07:00;18.30;99.90
9329;DHT22;4703;48.748;19.142;2022-09-09T08:09:30;18.10;99.90
9329;DHT22;4703;48.748;19.142;2022-09-09T08:11:59;18.00;99.90
9329;DHT22;4703;48.748;19.142;2022-09-09T08:14:26;18.30;99.90
9329;DHT22;4703;48.748;19.142;2022-09-09T08:16:54;18.20;99.90
9329;DHT22;4703;48.748;19.142;2022-09-09T08:19:21;20.10;99.90
9329;DHT22;4703;48.748;19.142;2022-09-09T08:21:48;18.80;99.90
9329;DHT22;4703;48.748;19.142;2022-09-09T08:24:15;19.10;99.90
9329;DHT22;4703;48.748;19.142;2022-09-09T08:26:45;18.90;99.90
9329;DHT22;4703;48.748;19.142;2022-09-09T08:29:15;18.40;99.90
9329;DHT22;4703;48.748;19.142;2022-09-09T08:31:48;19.30;99.90
9329;DHT22;4703;48.748;19.142;2022-09-09T08:34:16;19.10;99.90
9329;DHT22;4703;48.748;19.142;2022-09-09T08:36:48;19.40;99.90
9329;DHT22;4703;48.748;19.142;2022-09-09T08:39:18;19.30;99.90
9329;DHT22;4703;48.748;19.142;2022-09-09T08:50:53;18.90;99.90
9329;DHT22;4703;48.748;19.142;2022-09-09T08:53:33;19.20;99.90
9329;DHT22;4703;48.748;19.142;2022-09-09T08:56:18;19.40;99.90
9329;DHT22;4703;48.748;19.142;2022-09-09T08:58:49;19.20;99.90
9329;DHT22;4703;48.748;19.142;2022-09-09T09:10:15;19.30;99.90
9329;DHT22;4703;48.748;19.142;2022-09-09T09:13:19;19.40;99.90
9329;DHT22;4703;48.748;19.142;2022-09-09T09:16:30;19.60;99.90
9329;DHT22;4703;48.748;19.142;2022-09-09T09:18:56;21.60;99.90
9329;DHT22;4703;48.748;19.142;2022-09-09T09:21:39;19.70;99.90
9329;DHT22;4703;48.748;19.142;2022-09-09T09:24:41;19.60;99.90
9329;DHT22;4703;48.748;19.142;2022-09-09T09:27:35;19.60;99.90
9329;DHT22;4703;48.748;19.142;2022-09-09T09:30:18;19.80;99.90
9329;DHT22;4703;48.748;19.142;2022-09-09T09:35:55;19.80;99.90
9329;DHT22;4703;48.748;19.142;2022-09-09T09:38:24;19.90;99.90
9329;DHT22;4703;48.748;19.142;2022-09-09T09:41:14;20.10;99.90
9329;DHT22;4703;48.748;19.142;2022-09-09T09:43:41;20.10;99.90
9329;DHT22;4703;48.748;19.142;2022-09-09T09:46:22;20.30;99.90
9329;DHT22;4703;48.748;19.142;2022-09-09T09:49:09;20.50;99.90
9329;DHT22;4703;48.748;19.142;2022-09-09T09:51:36;20.70;99.90
9329;DHT22;4703;48.748;19.142;2022-09-09T09:56:42;21.20;99.90
9329;DHT22;4703;48.748;19.142;2022-09-09T09:59:33;21.40;99.90
9329;DHT22;4703;48.748;19.142;2022-09-09T10:02:25;21.70;99.90
9329;DHT22;4703;48.748;19.142;2022-09-09T10:05:16;22.00;99.90
9329;DHT22;4703;48.748;19.142;2022-09-09T10:19:13;23.10;99.90
9329;DHT22;4703;48.748;19.142;2022-09-09T10:38:46;22.80;99.60
9329;DHT22;4703;48.748;19.142;2022-09-09T10:41:48;22.80;99.90
9329;DHT22;4703;48.748;19.142;2022-09-09T10:50:11;22.90;99.90
9329;DHT22;4703;48.748;19.142;2022-09-09T10:55:42;22.90;99.90
9329;DHT22;4703;48.748;19.142;2022-09-09T10:58:17;22.80;99.70
9329;DHT22;4703;48.748;19.142;2022-09-09T11:00:59;22.80;99.80
9329;DHT22;4703;48.748;19.142;2022-09-09T11:03:29;22.80;99.90
9329;DHT22;4703;48.748;19.142;2022-09-09T11:06:00;22.90;99.90
9329;DHT22;4703;48.748;19.142;2022-09-09T11:08:34;22.90;99.70
9329;DHT22;4703;48.748;19.142;2022-09-09T11:14:05;23.10;99.50
9329;DHT22;4703;48.748;19.142;2022-09-09T11:21:49;23.50;99.50
9329;DHT22;4703;48.748;19.142;2022-09-09T11:27:27;23.80;99.90
9329;DHT22;4703;48.748;19.142;2022-09-09T11:36:55;24.20;98.40
9329;DHT22;4703;48.748;19.142;2022-09-09T11:44:39;24.90;98.50
9329;DHT22;4703;48.748;19.142;2022-09-09T11:47:25;25.10;98.10
9329;DHT22;4703;48.748;19.142;2022-09-09T11:50:27;25.30;97.80
9329;DHT22;4703;48.748;19.142;2022-09-09T11:53:21;25.50;96.10
9329;DHT22;4703;48.748;19.142;2022-09-09T11:56:04;25.60;95.30
9329;DHT22;4703;48.748;19.142;2022-09-09T11:58:42;25.70;95.10
9329;DHT22;4703;48.748;19.142;2022-09-09T12:01:14;25.60;93.80
9329;DHT22;4703;48.748;19.142;2022-09-09T12:04:14;25.60;94.10
9329;DHT22;4703;48.748;19.142;2022-09-09T12:17:21;25.10;92.90
9329;DHT22;4703;48.748;19.142;2022-09-09T12:20:01;25.10;93.60
9329;DHT22;4703;48.748;19.142;2022-09-09T12:28:20;24.80;92.70
9329;DHT22;4703;48.748;19.142;2022-09-09T12:33:49;24.70;94.20
9329;DHT22;4703;48.748;19.142;2022-09-09T12:36:29;24.70;95.20
9329;DHT22;4703;48.748;19.142;2022-09-09T12:39:20;24.70;94.70
9329;DHT22;4703;48.748;19.142;2022-09-09T12:41:53;24.80;95.50
9329;DHT22;4703;48.748;19.142;2022-09-09T12:44:25;24.90;94.60
9329;DHT22;4703;48.748;19.142;2022-09-09T12:46:56;24.90;94.60
9329;DHT22;4703;48.748;19.142;2022-09-09T12:49:37;24.90;95.10
9329;DHT22;4703;48.748;19.142;2022-09-09T12:52:14;24.90;94.90
9329;DHT22;4703;48.748;19.142;2022-09-09T12:54:47;25.10;95.20
9329;DHT22;4703;48.748;19.142;2022-09-09T12:57:15;25.20;95.00
9329;DHT22;4703;48.748;19.142;2022-09-09T12:59:43;25.30;94.90
9329;DHT22;4703;48.748;19.142;2022-09-09T13:02:18;25.40;95.10
9329;DHT22;4703;48.748;19.142;2022-09-09T13:04:46;25.40;95.20
9329;DHT22;4703;48.748;19.142;2022-09-09T13:07:13;25.30;94.30
9329;DHT22;4703;48.748;19.142;2022-09-09T13:09:44;25.20;94.50
9329;DHT22;4703;48.748;19.142;2022-09-09T13:12:21;25.20;94.40
9329;DHT22;4703;48.748;19.142;2022-09-09T13:14:54;25.10;94.40
9329;DHT22;4703;48.748;19.142;2022-09-09T13:17:32;25.00;94.40
9329;DHT22;4703;48.748;19.142;2022-09-09T13:19:59;25.00;95.40
9329;DHT22;4703;48.748;19.142;2022-09-09T13:22:35;24.90;95.50
9329;DHT22;4703;48.748;19.142;2022-09-09T13:28:05;24.90;94.70
9329;DHT22;4703;48.748;19.142;2022-09-09T13:30:59;25.00;95.10
9329;DHT22;4703;48.748;19.142;2022-09-09T13:33:38;25.00;94.70
9329;DHT22;4703;48.748;19.142;2022-09-09T13:36:11;25.00;95.10
9329;DHT22;4703;48.748;19.142;2022-09-09T13:39:01;25.10;94.40
9329;DHT22;4703;48.748;19.142;2022-09-09T13:41:36;25.10;94.80
9329;DHT22;4703;48.748;19.142;2022-09-09T13:44:28;25.10;95.60
9329;DHT22;4703;48.748;19.142;2022-09-09T13:47:04;25.20;95.50
9329;DHT22;4703;48.748;19.142;2022-09-09T13:49:40;25.20;94.20
9329;DHT22;4703;48.748;19.142;2022-09-09T13:52:14;25.20;93.50
9329;DHT22;4703;48.748;19.142;2022-09-09T13:54:46;25.20;94.10
9329;DHT22;4703;48.748;19.142;2022-09-09T13:57:24;25.20;92.50
9329;DHT22;4703;48.748;19.142;2022-09-09T13:59:53;25.10;92.80
9329;DHT22;4703;48.748;19.142;2022-09-09T14:02:32;25.10;93.50
9329;DHT22;4703;48.748;19.142;2022-09-09T14:05:00;25.00;93.20
9329;DHT22;4703;48.748;19.142;2022-09-09T14:07:27;24.90;93.50
9329;DHT22;4703;48.748;19.142;2022-09-09T14:09:54;24.90;93.80
9329;DHT22;4703;48.748;19.142;2022-09-09T14:12:22;24.80;93.70
9329;DHT22;4703;48.748;19.142;2022-09-09T14:14:49;24.70;92.90
9329;DHT22;4703;48.748;19.142;2022-09-09T14:17:16;24.60;92.50
9329;DHT22;4703;48.748;19.142;2022-09-09T14:19:43;24.50;92.30
9329;DHT22;4703;48.748;19.142;2022-09-09T14:22:12;24.40;91.60
9329;DHT22;4703;48.748;19.142;2022-09-09T14:24:39;24.30;92.10
9329;DHT22;4703;48.748;19.142;2022-09-09T14:27:06;24.20;92.60
9329;DHT22;4703;48.748;19.142;2022-09-09T14:29:33;24.20;92.70
9329;DHT22;4703;48.748;19.142;2022-09-09T14:32:00;24.10;92.90
9329;DHT22;4703;48.748;19.142;2022-09-09T14:34:27;24.10;92.70
9329;DHT22;4703;48.748;19.142;2022-09-09T14:36:54;24.10;93.30
9329;DHT22;4703;48.748;19.142;2022-09-09T14:39:21;24.20;93.30
9329;DHT22;4703;48.748;19.142;2022-09-09T14:41:48;24.30;93.30
9329;DHT22;4703;48.748;19.142;2022-09-09T14:44:15;24.40;93.40
9329;DHT22;4703;48.748;19.142;2022-09-09T14:46:42;24.40;91.40
9329;DHT22;4703;48.748;19.142;2022-09-09T14:49:09;24.40;92.10
9329;DHT22;4703;48.748;19.142;2022-09-09T14:51:39;24.40;91.60
9329;DHT22;4703;48.748;19.142;2022-09-09T14:54:06;24.40;91.40
9329;DHT22;4703;48.748;19.142;2022-09-09T14:56:34;24.40;91.80
9329;DHT22;4703;48.748;19.142;2022-09-09T14:59:01;24.30;90.00
9329;DHT22;4703;48.748;19.142;2022-09-09T15:01:30;24.30;90.20
9329;DHT22;4703;48.748;19.142;2022-09-09T15:04:00;23.20;90.60
9329;DHT22;4703;48.748;19.142;2022-09-09T15:06:31;24.10;91.50
9329;DHT22;4703;48.748;19.142;2022-09-09T15:09:00;24.00;92.00
9329;DHT22;4703;48.748;19.142;2022-09-09T15:11:28;23.90;91.10
9329;DHT22;4703;48.748;19.142;2022-09-09T15:14:01;23.80;91.60
9329;DHT22;4703;48.748;19.142;2022-09-09T15:16:28;23.80;92.50
9329;DHT22;4703;48.748;19.142;2022-09-09T15:18:57;23.70;92.60
9329;DHT22;4703;48.748;19.142;2022-09-09T15:21:27;23.70;93.70
9329;DHT22;4703;48.748;19.142;2022-09-09T15:23:56;23.60;93.80
9329;DHT22;4703;48.748;19.142;2022-09-09T15:26:24;23.60;94.00
9329;DHT22;4703;48.748;19.142;2022-09-09T15:28:51;23.60;93.80
9329;DHT22;4703;48.748;19.142;2022-09-09T15:31:20;23.60;94.00
9329;DHT22;4703;48.748;19.142;2022-09-09T15:33:53;23.60;94.20
9329;DHT22;4703;48.748;19.142;2022-09-09T15:36:31;23.50;94.20
9329;DHT22;4703;48.748;19.142;2022-09-09T15:38:59;23.70;95.70
9329;DHT22;4703;48.748;19.142;2022-09-09T15:41:28;24.00;96.20
9329;DHT22;4703;48.748;19.142;2022-09-09T15:43:56;24.60;95.50
9329;DHT22;4703;48.748;19.142;2022-09-09T15:49:10;25.10;94.90
9329;DHT22;4703;48.748;19.142;2022-09-09T15:51:41;25.10;94.70
9329;DHT22;4703;48.748;19.142;2022-09-09T15:54:18;25.10;95.10
9329;DHT22;4703;48.748;19.142;2022-09-09T15:56:58;25.00;94.70
9329;DHT22;4703;48.748;19.142;2022-09-09T15:59:28;24.80;95.40
9329;DHT22;4703;48.748;19.142;2022-09-09T16:01:57;24.70;95.70
9329;DHT22;4703;48.748;19.142;2022-09-09T16:04:27;24.50;96.40
9329;DHT22;4703;48.748;19.142;2022-09-09T16:06:57;24.40;96.10
9329;DHT22;4703;48.748;19.142;2022-09-09T16:09:27;24.30;96.90
9329;DHT22;4703;48.748;19.142;2022-09-09T16:11:59;24.20;98.10
9329;DHT22;4703;48.748;19.142;2022-09-09T16:14:28;24.00;97.20
9329;DHT22;4703;48.748;19.142;2022-09-09T16:16:55;23.90;97.60
9329;DHT22;4703;48.748;19.142;2022-09-09T16:19:23;23.90;97.90
9329;DHT22;4703;48.748;19.142;2022-09-09T16:21:49;23.70;98.10
9329;DHT22;4703;48.748;19.142;2022-09-09T16:24:18;23.50;96.60
9329;DHT22;4703;48.748;19.142;2022-09-09T16:26:48;23.30;96.70
9329;DHT22;4703;48.748;19.142;2022-09-09T16:29:18;23.20;97.00
9329;DHT22;4703;48.748;19.142;2022-09-09T16:31:46;23.10;97.30
9329;DHT22;4703;48.748;19.142;2022-09-09T16:34:14;22.90;97.50
9329;DHT22;4703;48.748;19.142;2022-09-09T16:36:43;22.80;98.00
9329;DHT22;4703;48.748;19.142;2022-09-09T16:39:14;22.70;98.40
9329;DHT22;4703;48.748;19.142;2022-09-09T16:41:44;22.60;98.50
9329;DHT22;4703;48.748;19.142;2022-09-09T16:44:14;22.40;98.90
9329;DHT22;4703;48.748;19.142;2022-09-09T16:46:47;22.40;98.00
9329;DHT22;4703;48.748;19.142;2022-09-09T16:49:15;22.30;98.50
9329;DHT22;4703;48.748;19.142;2022-09-09T16:51:47;22.30;98.60
9329;DHT22;4703;48.748;19.142;2022-09-09T16:54:16;22.20;98.90
9329;DHT22;4703;48.748;19.142;2022-09-09T16:56:45;22.10;99.00
9329;DHT22;4703;48.748;19.142;2022-09-09T16:59:17;22.00;99.40
9329;DHT22;4703;48.748;19.142;2022-09-09T17:01:48;21.90;99.40
9329;DHT22;4703;48.748;19.142;2022-09-09T17:04:21;21.90;99.30
9329;DHT22;4703;48.748;19.142;2022-09-09T17:06:52;21.90;99.30
9329;DHT22;4703;48.748;19.142;2022-09-09T17:09:21;21.70;99.60
9329;DHT22;4703;48.748;19.142;2022-09-09T17:11:49;22.70;99.90
9329;DHT22;4703;48.748;19.142;2022-09-09T17:14:20;21.50;99.90
9329;DHT22;4703;48.748;19.142;2022-09-09T17:16:49;21.40;99.90
9329;DHT22;4703;48.748;19.142;2022-09-09T17:19:16;21.40;99.90
9329;DHT22;4703;48.748;19.142;2022-09-09T17:21:43;21.30;99.90
9329;DHT22;4703;48.748;19.142;2022-09-09T17:24:33;21.20;99.90
9329;DHT22;4703;48.748;19.142;2022-09-09T17:27:00;21.10;99.90
9329;DHT22;4703;48.748;19.142;2022-09-09T17:29:28;21.10;99.90
9329;DHT22;4703;48.748;19.142;2022-09-09T17:31:55;21.20;99.90
9329;DHT22;4703;48.748;19.142;2022-09-09T17:34:23;21.10;99.90
9329;DHT22;4703;48.748;19.142;2022-09-09T17:36:51;21.00;99.90
9329;DHT22;4703;48.748;19.142;2022-09-09T17:39:19;20.90;99.90
9329;DHT22;4703;48.748;19.142;2022-09-09T17:41:46;20.90;99.90
9329;DHT22;4703;48.748;19.142;2022-09-09T17:44:13;20.90;99.90
9329;DHT22;4703;48.748;19.142;2022-09-09T17:46:41;20.80;99.90
9329;DHT22;4703;48.748;19.142;2022-09-09T17:49:11;20.80;99.90
9329;DHT22;4703;48.748;19.142;2022-09-09T17:51:41;20.70;99.90
9329;DHT22;4703;48.748;19.142;2022-09-09T17:54:14;20.80;99.90
9329;DHT22;4703;48.748;19.142;2022-09-09T17:56:43;20.60;99.90
9329;DHT22;4703;48.748;19.142;2022-09-09T17:59:12;20.60;99.90
9329;DHT22;4703;48.748;19.142;2022-09-09T18:01:43;20.60;99.90
9329;DHT22;4703;48.748;19.142;2022-09-09T18:04:15;20.50;99.90
9329;DHT22;4703;48.748;19.142;2022-09-09T18:06:50;21.20;99.90
9329;DHT22;4703;48.748;19.142;2022-09-09T18:09:22;20.50;99.90
9329;DHT22;4703;48.748;19.142;2022-09-09T18:11:56;20.40;99.90
9329;DHT22;4703;48.748;19.142;2022-09-09T18:14:30;20.40;99.90
9329;DHT22;4703;48.748;19.142;2022-09-09T18:17:00;20.30;99.90
9329;DHT22;4703;48.748;19.142;2022-09-09T18:19:29;20.30;99.90
9329;DHT22;4703;48.748;19.142;2022-09-09T18:22:00;20.30;99.90
9329;DHT22;4703;48.748;19.142;2022-09-09T18:24:31;20.30;99.90
9329;DHT22;4703;48.748;19.142;2022-09-09T18:27:00;20.20;99.90
9329;DHT22;4703;48.748;19.142;2022-09-09T18:29:27;20.70;99.90
9329;DHT22;4703;48.748;19.142;2022-09-09T18:31:55;20.30;99.90
9329;DHT22;4703;48.748;19.142;2022-09-09T18:34:23;20.20;99.90
9329;DHT22;4703;48.748;19.142;2022-09-09T18:36:54;20.20;99.90
9329;DHT22;4703;48.748;19.142;2022-09-09T18:39:27;20.50;99.90
9329;DHT22;4703;48.748;19.142;2022-09-09T18:41:57;20.20;99.90
9329;DHT22;4703;48.748;19.142;2022-09-09T18:44:28;20.10;99.90